Chilson, New York
Current Conditions -  °F | °C
As of 1:35 PM on Thursday 30 Oct 2014 (Local Time) from K6B0 Reporting Station
Broken Clouds Broken Clouds  
Wind Chill: 50°   Ceiling: 5000
Heat Index: 50°   Visibility: 10mi
Dew Point: 36°   Wind: 3mph
Humidity: 59%   Direction: 310°NW
Pressure: 29.94"   Gusts: NA
Location:  43.8519°N, 73.5047°W
Report Text: K6B0 301735Z AUTO 31003KT 10SM SCT040 BKN050 10/02 A2994 RMK AO2 T00990023
Loading
Personal Weather Stations






























Interactive Weather Map
Tropical Storm Tracking
New forecast layout! Learn more

10-Day Weather Forecast

Advertisements
Track Severe Weather on mobile